Time;durP1;ratioP1;P1;durP2;ratioP2;P2;SDS_P1;SDS_P2;PMS_P1;PMS_P2;Temp;Humidity;BMP_temperature;BMP_pressure;BME280_temperature;BME280_humidity;BME280_pressure;Samples;Min_cycle;Max_cycle;Signal;HPM_P1;HPM_P2
2022/12/27 00:01:58;;;;;;;60.00;34.55;;;;;;;0.88;92.01;100317.25;5092438;28;20495;-72
2022/12/27 00:04:23;;;;;;;62.13;33.63;;;;;;;1.01;92.02;100307.78;5093714;28;20065;-72
2022/12/27 00:06:49;;;;;;;57.15;33.25;;;;;;;1.28;91.32;100298.88;5109253;28;20019;-72
2022/12/27 00:09:14;;;;;;;60.28;34.28;;;;;;;1.48;90.61;100303.00;5092196;28;20024;-72
2022/12/27 00:11:39;;;;;;;58.28;33.42;;;;;;;1.67;89.59;100298.84;5112833;27;20119;-72
2022/12/27 00:14:06;;;;;;;59.45;31.83;;;;;;;1.75;88.14;100297.56;5093443;28;20039;-72
2022/12/27 00:16:32;;;;;;;54.90;31.73;;;;;;;1.88;87.12;100306.56;5109173;28;20028;-72
2022/12/27 00:18:57;;;;;;;58.95;32.92;;;;;;;2.01;86.14;100310.88;5109326;28;20028;-72
2022/12/27 00:21:23;;;;;;;52.42;30.48;;;;;;;2.08;85.38;100306.81;5093324;28;20026;-72
2022/12/27 00:23:51;;;;;;;52.47;29.77;;;;;;;2.23;84.80;100306.19;5093303;28;20028;-72
2022/12/27 00:26:22;;;;;;;53.63;30.50;;;;;;;2.04;84.59;100294.63;5108986;28;20413;-72
2022/12/27 00:28:48;;;;;;;59.42;31.30;;;;;;;1.67;86.07;100296.09;5093261;28;20051;-72
2022/12/27 00:31:14;;;;;;;59.13;30.75;;;;;;;1.62;86.14;100286.94;5108916;28;20102;-72
2022/12/27 00:33:41;;;;;;;51.05;29.50;;;;;;;1.62;86.89;100290.50;5093105;28;20052;-72
2022/12/27 00:36:11;;;;;;;60.38;30.73;;;;;;;1.61;87.79;100294.34;5093066;28;20491;-72
2022/12/27 00:38:36;;;;;;;61.13;33.03;;;;;;;1.74;87.15;100282.13;5093096;28;20020;-73
2022/12/27 00:41:02;;;;;;;59.28;32.47;;;;;;;1.81;86.60;100274.50;5093044;28;20031;-73
2022/12/27 00:43:28;;;;;;;65.68;35.53;;;;;;;1.90;86.40;100274.88;5092921;28;20027;-72
2022/12/27 00:45:53;;;;;;;62.05;33.53;;;;;;;1.62;85.48;100259.34;5108490;28;20024;-72
2022/12/27 00:48:19;;;;;;;55.45;31.15;;;;;;;1.85;85.39;100261.00;5092713;28;20554;-72
2022/12/27 00:50:45;;;;;;;60.30;32.63;;;;;;;2.01;84.67;100263.97;5094356;28;20102;-72
2022/12/27 00:53:11;;;;;;;60.33;31.65;;;;;;;1.35;86.34;100263.66;5092854;28;20324;-72
2022/12/27 00:55:37;;;;;;;59.67;31.48;;;;;;;1.58;86.59;100258.19;5091135;28;20123;-72
2022/12/27 00:58:03;;;;;;;55.40;29.85;;;;;;;1.82;85.45;100248.56;5091539;28;20422;-72
2022/12/27 01:00:29;;;;;;;56.33;30.10;;;;;;;1.79;84.76;100253.75;5091275;28;20077;-72
2022/12/27 01:02:54;;;;;;;62.88;32.33;;;;;;;1.92;84.40;100260.81;5092636;28;20032;-72
2022/12/27 01:05:21;;;;;;;53.95;30.05;;;;;;;1.84;83.31;100266.78;5092553;28;20028;-72
2022/12/27 01:07:46;;;;;;;56.03;31.77;;;;;;;1.69;82.89;100265.50;5108169;28;20028;-72
2022/12/27 01:10:12;;;;;;;60.83;31.25;;;;;;;1.61;83.96;100275.03;5108174;28;20462;-72
2022/12/27 01:12:37;;;;;;;59.88;31.27;;;;;;;1.57;83.83;100279.41;5101519;28;20023;-73
2022/12/27 01:15:05;;;;;;;52.50;30.83;;;;;;;1.77;83.26;100273.31;5112664;28;20551;-72
2022/12/27 01:17:31;;;;;;;53.83;32.25;;;;;;;1.78;83.10;100263.94;5111379;28;20516;-72
2022/12/27 01:19:56;;;;;;;51.38;29.77;;;;;;;1.85;82.86;100268.47;5112550;28;20028;-72
2022/12/27 01:22:22;;;;;;;58.78;29.83;;;;;;;1.79;81.99;100254.59;5112574;28;20062;-72
2022/12/27 01:24:47;;;;;;;62.13;32.55;;;;;;;1.58;82.70;100259.00;5112542;28;20055;-72
2022/12/27 01:27:13;;;;;;;59.92;31.60;;;;;;;1.53;82.92;100257.03;5112413;28;20023;-72
2022/12/27 01:29:38;;;;;;;58.20;31.15;;;;;;;1.46;84.41;100250.03;5104116;28;20517;-72
2022/12/27 01:32:04;;;;;;;62.80;34.83;;;;;;;1.38;85.41;100257.63;5107679;28;20024;-72
2022/12/27 01:34:30;;;;;;;59.92;34.47;;;;;;;1.54;84.47;100253.16;5092031;28;20394;-73
2022/12/27 01:36:55;;;;;;;63.40;35.95;;;;;;;1.56;84.72;100246.56;5091992;28;20100;-73
2022/12/27 01:39:21;;;;;;;92.35;48.65;;;;;;;1.42;84.94;100233.16;5091946;28;20086;-72
2022/12/27 01:44:37;;;;;;;100.55;52.10;;;;;;;1.53;84.83;100234.97;5092146;28;20125;-72
2022/12/27 01:47:11;;;;;;;101.57;51.80;;;;;;;1.63;84.42;100237.03;5107315;28;20413;-72
2022/12/27 01:49:42;;;;;;;88.72;45.97;;;;;;;1.30;84.49;100246.22;5091825;28;20455;-72
2022/12/27 01:52:10;;;;;;;93.35;48.42;;;;;;;1.40;85.46;100230.66;5091785;28;20491;-72
2022/12/27 01:54:35;;;;;;;86.38;44.15;;;;;;;1.37;85.79;100230.34;5091497;28;20051;-72
2022/12/27 01:57:03;;;;;;;112.30;57.50;;;;;;;0.96;86.18;100242.41;5107430;28;20437;-72
2022/12/27 01:59:28;;;;;;;201.60;95.50;;;;;;;0.82;89.53;100236.44;5090326;28;20103;-72
2022/12/27 02:01:54;;;;;;;125.45;61.65;;;;;;;1.16;88.53;100227.28;5091527;28;20115;-72
2022/12/27 02:04:25;;;;;;;83.90;44.58;;;;;;;1.24;87.25;100237.03;5107379;28;20016;-72
2022/12/27 02:06:51;;;;;;;83.45;43.50;;;;;;;1.41;85.97;100237.00;5089615;28;20099;-72
2022/12/27 02:09:28;;;;;;;72.97;40.13;;;;;;;1.54;85.75;100233.06;5094617;28;20024;-72
2022/12/27 02:11:56;;;;;;;75.28;38.92;;;;;;;1.60;84.80;100231.19;5107161;28;20077;-72
2022/12/27 02:14:34;;;;;;;72.15;41.30;;;;;;;1.57;84.45;100234.44;5091493;28;20028;-72
2022/12/27 02:17:04;;;;;;;68.95;38.97;;;;;;;1.48;83.92;100226.63;5107042;28;20016;-72
2022/12/27 02:19:41;;;;;;;77.00;41.50;;;;;;;0.39;82.81;100244.25;5107133;28;20052;-72
2022/12/27 02:22:22;;;;;;;85.45;41.75;;;;;;;0.44;86.11;100242.69;5091743;28;20035;-72
2022/12/27 02:25:31;;;;;;;86.95;47.20;;;;;;;0.45;85.72;100236.94;5107059;28;20024;-72
2022/12/27 02:28:22;;;;;;;85.85;45.75;;;;;;;0.31;88.58;100252.91;5072210;28;20031;-72
2022/12/27 02:30:57;;;;;;;80.75;41.08;;;;;;;0.23;90.23;100242.31;5091376;28;20058;-72
2022/12/27 02:33:28;;;;;;;70.10;38.05;;;;;;;0.33;90.82;100239.75;5091227;28;20043;-72
2022/12/27 02:36:00;;;;;;;63.88;34.15;;;;;;;0.60;90.35;100233.59;5089959;28;20107;-72
2022/12/27 02:38:48;;;;;;;73.28;32.33;;;;;;;0.63;89.48;100235.84;5091320;28;20460;-72
2022/12/27 02:53:09;;;;;;;54.75;29.98;;;;;;;1.11;85.25;100221.72;5091278;28;20047;-72
2022/12/27 02:59:13;;;;;;;48.78;24.65;;;;;;;1.03;84.77;100222.13;5091307;28;20127;-72
2022/12/27 03:04:56;;;;;;;48.20;26.75;;;;;;;1.12;84.38;100228.91;5111362;28;20030;-72
2022/12/27 03:07:35;;;;;;;47.95;25.92;;;;;;;1.14;84.21;100236.88;5111295;28;20024;-72
2022/12/27 03:16:26;;;;;;;44.60;24.88;;;;;;;0.83;84.81;100221.59;5111553;28;20038;-72
2022/12/27 03:19:05;;;;;;;40.58;22.38;;;;;;;0.87;84.78;100227.44;5112979;28;20343;-72
2022/12/27 03:27:32;;;;;;;40.97;22.33;;;;;;;1.01;83.67;100216.06;5115036;28;20067;-72
2022/12/27 03:35:39;;;;;;;46.22;26.20;;;;;;;1.04;83.37;100199.00;5114898;28;20038;-72
2022/12/27 03:38:11;;;;;;;63.65;33.75;;;;;;;1.04;83.04;100204.53;5114644;28;20027;-72
2022/12/27 03:43:35;;;;;;;69.75;38.05;;;;;;;1.12;83.01;100193.06;5114820;28;20096;-72
2022/12/27 03:46:35;;;;;;;74.20;36.30;;;;;;;1.11;83.16;100191.41;5114913;28;20029;-71
2022/12/27 03:49:29;;;;;;;86.72;44.03;;;;;;;0.89;84.10;100208.72;5113020;28;20027;-72
2022/12/27 03:52:15;;;;;;;80.30;39.75;;;;;;;0.78;84.89;100204.13;5114410;28;20048;-72
2022/12/27 03:54:43;;;;;;;53.50;29.08;;;;;;;0.50;86.59;100206.72;5114212;28;20122;-72
2022/12/27 03:57:18;;;;;;;62.78;31.90;;;;;;;0.39;87.74;100213.13;5112998;28;20491;-72
2022/12/27 03:59:44;;;;;;;53.97;30.35;;;;;;;0.36;87.82;100202.63;5097726;28;20028;-72
2022/12/27 04:02:10;;;;;;;52.50;29.85;;;;;;;0.52;87.31;100203.72;5093752;28;20031;-72
2022/12/27 04:04:36;;;;;;;46.28;24.73;;;;;;;0.20;88.88;100218.03;5093805;28;20051;-72
2022/12/27 04:07:02;;;;;;;42.97;23.45;;;;;;;-0.14;90.46;100207.81;5093647;28;20073;-72
2022/12/27 04:36:47;;;;;;;47.45;26.33;;;;;;;-0.44;96.90;100203.34;5093409;28;20074;-72
2022/12/27 04:39:13;;;;;;;57.63;24.73;;;;;;;-0.69;96.33;100207.22;5093130;28;20051;-72
2022/12/27 04:55:29;;;;;;;52.47;29.00;;;;;;;-0.12;96.05;100208.38;5092666;28;20059;-72
2022/12/27 04:57:55;;;;;;;;;;;;;;;0.08;95.70;100215.38;5093212;28;20077;-72
2022/12/27 05:03:11;;;;;;;48.13;28.60;;;;;;;-0.20;96.36;100225.25;5092886;28;20467;-72
2022/12/27 05:05:38;;;;;;;56.42;29.85;;;;;;;-0.03;96.01;100225.31;5092615;28;20028;-72
2022/12/27 05:16:17;;;;;;;36.42;21.00;;;;;;;-0.27;95.32;100216.34;5092666;28;20031;-72
2022/12/27 05:18:42;;;;;;;36.22;21.27;;;;;;;-0.48;96.36;100203.03;5091070;28;20012;-72
2022/12/27 05:21:08;;;;;;;41.85;21.20;;;;;;;-0.45;97.05;100208.03;5108104;28;20024;-71
2022/12/27 05:26:22;;;;;;;50.72;27.67;;;;;;;-0.12;95.85;100222.13;5112770;28;20066;-71
2022/12/27 05:28:52;;;;;;;47.85;28.73;;;;;;;-0.08;95.17;100216.97;5111172;28;20019;-72
2022/12/27 05:31:19;;;;;;;48.75;28.67;;;;;;;-0.14;94.71;100221.56;5110474;28;20038;-72
2022/12/27 05:33:44;;;;;;;44.03;26.02;;;;;;;0.19;94.67;100228.22;5110102;28;20020;-72
2022/12/27 05:36:10;;;;;;;45.70;25.73;;;;;;;0.31;93.13;100228.16;5111386;28;20504;-74
2022/12/27 05:38:36;;;;;;;49.20;25.35;;;;;;;0.37;92.33;100237.34;5103406;28;20058;-72
2022/12/27 05:41:05;;;;;;;50.90;27.35;;;;;;;0.38;92.04;100226.09;5111479;28;20061;-71
2022/12/27 05:43:31;;;;;;;45.45;28.83;;;;;;;0.52;91.57;100229.34;5112332;28;20566;-74
2022/12/27 05:46:23;;;;;;;48.63;26.50;;;;;;;0.76;90.13;100231.91;5112246;28;20023;-71
2022/12/27 05:48:48;;;;;;;50.58;27.40;;;;;;;0.74;89.31;100230.53;5106855;28;20143;-72
2022/12/27 05:51:17;;;;;;;49.65;28.52;;;;;;;0.60;88.91;100222.56;5112157;28;20063;-72
2022/12/27 05:53:43;;;;;;;57.38;30.85;;;;;;;-0.16;91.69;100227.28;5109759;28;20023;-71
2022/12/27 05:56:13;;;;;;;149.90;67.70;;;;;;;0.26;91.47;100233.56;5102678;28;20047;-72
2022/12/27 05:58:39;;;;;;;213.00;94.30;;;;;;;0.40;90.85;100237.69;5091609;28;20046;-71
2022/12/27 06:01:08;;;;;;;101.93;49.97;;;;;;;0.21;91.52;100241.72;5091689;28;20020;-71
2022/12/27 06:03:34;;;;;;;107.30;50.25;;;;;;;0.34;91.43;100241.41;5092691;28;20020;-71
2022/12/27 06:06:01;;;;;;;91.70;45.75;;;;;;;0.34;90.84;100233.16;5101526;28;20028;-71
2022/12/27 06:08:27;;;;;;;73.95;38.78;;;;;;;0.16;91.49;100238.88;5090427;28;20020;-72
2022/12/27 06:11:11;;;;;;;68.82;39.00;;;;;;;-0.23;93.23;100234.00;5090269;28;20020;-71
2022/12/27 06:13:37;;;;;;;85.38;45.80;;;;;;;-0.11;93.94;100234.81;5090242;28;20024;-71
2022/12/27 06:16:05;;;;;;;127.40;63.85;;;;;;;-0.03;93.29;100233.56;5091438;28;20444;-71
2022/12/27 06:18:32;;;;;;;130.50;67.90;;;;;;;-0.05;93.74;100241.25;5090124;28;20022;-71
2022/12/27 06:21:02;;;;;;;145.77;75.65;;;;;;;0.11;93.29;100243.19;5103083;28;20436;-72
2022/12/27 06:23:27;;;;;;;108.78;57.47;;;;;;;0.27;92.49;100235.25;5105413;28;20028;-72
2022/12/27 06:25:53;;;;;;;134.68;68.15;;;;;;;0.52;92.76;100242.28;5092021;28;20028;-72
2022/12/27 06:28:18;;;;;;;100.80;51.85;;;;;;;0.42;92.02;100237.41;5091300;28;20028;-72
2022/12/27 06:30:44;;;;;;;113.05;57.50;;;;;;;0.35;92.42;100237.56;5092579;28;20038;-72
2022/12/27 06:33:09;;;;;;;190.82;94.40;;;;;;;0.45;93.20;100236.94;5109275;28;20024;-72
2022/12/27 06:35:35;;;;;;;208.00;96.88;;;;;;;0.60;93.17;100221.75;5092836;28;20020;-72
2022/12/27 06:38:00;;;;;;;228.55;110.45;;;;;;;0.82;92.62;100225.41;5091186;28;20050;-72
2022/12/27 06:40:26;;;;;;;216.05;102.20;;;;;;;1.00;92.61;100223.47;5098028;28;20520;-72
2022/12/27 06:42:51;;;;;;;190.48;92.30;;;;;;;1.24;91.71;100224.09;5109418;28;20402;-70
2022/12/27 06:45:16;;;;;;;166.45;82.38;;;;;;;1.46;90.48;100226.06;5112245;28;20027;-70
2022/12/27 06:47:42;;;;;;;142.70;77.30;;;;;;;1.63;89.49;100212.22;5111575;28;20020;-70
2022/12/27 06:50:08;;;;;;;117.85;64.13;;;;;;;1.41;89.92;100209.44;5110251;28;20049;-71
2022/12/27 06:52:33;;;;;;;108.55;62.65;;;;;;;1.55;89.91;100212.66;5112324;28;20015;-71
2022/12/27 06:54:59;;;;;;;107.38;57.10;;;;;;;1.50;90.22;100213.41;5114163;28;20043;-71
2022/12/27 06:57:24;;;;;;;120.13;67.43;;;;;;;1.31;90.69;100220.31;5113283;28;20015;-73
2022/12/27 06:59:50;;;;;;;119.20;70.13;;;;;;;1.56;91.32;100217.06;5113613;28;20028;-73
2022/12/27 07:02:15;;;;;;;127.13;72.97;;;;;;;1.63;90.97;100214.13;5109990;28;20058;-74
2022/12/27 07:04:41;;;;;;;159.13;88.70;;;;;;;1.43;92.10;100218.28;5111215;28;20023;-71
2022/12/27 07:07:06;;;;;;;204.25;118.45;;;;;;;1.35;93.17;100224.25;5109859;28;20028;-72
2022/12/27 07:09:31;;;;;;;92.10;53.05;;;;;;;1.30;94.41;100218.66;5111759;28;20098;-73
2022/12/27 07:11:57;;;;;;;57.63;33.13;;;;;;;1.87;93.74;100211.09;5105953;27;20418;-71
2022/12/27 07:14:22;;;;;;;52.83;28.00;;;;;;;2.27;92.18;100209.84;5112475;28;20108;-74
2022/12/27 07:16:48;;;;;;;48.53;29.65;;;;;;;2.57;90.05;100191.91;5112435;28;20081;-72
2022/12/27 07:19:14;;;;;;;91.60;38.42;;;;;;;2.51;89.94;100206.75;5112313;28;20020;-71
2022/12/27 07:21:39;;;;;;;46.42;28.35;;;;;;;2.31;92.42;100211.00;5112665;28;20035;-71
2022/12/27 07:24:05;;;;;;;52.72;34.20;;;;;;;2.41;93.25;100214.94;5112263;28;20027;-71
2022/12/27 07:26:31;;;;;;;43.60;27.98;;;;;;;2.51;92.23;100215.03;5110979;28;20119;-71
2022/12/27 07:28:58;;;;;;;43.95;24.33;;;;;;;2.46;92.47;100209.47;5110830;28;20035;-71
2022/12/27 07:31:28;;;;;;;50.85;28.85;;;;;;;2.66;91.40;100217.09;5111996;28;20054;-71
2022/12/27 07:33:54;;;;;;;58.08;29.50;;;;;;;2.81;91.08;100221.91;5112039;28;20027;-73
2022/12/27 07:36:30;;;;;;;116.43;77.95;;;;;;;2.73;92.88;100227.91;5111987;28;20027;-71
2022/12/27 07:38:56;;;;;;;90.20;58.65;;;;;;;2.98;92.94;100224.53;5112228;28;20027;-73
2022/12/27 07:41:23;;;;;;;58.92;33.88;;;;;;;3.11;91.82;100219.63;5111848;27;20523;-73
2022/12/27 07:43:49;;;;;;;43.63;27.02;;;;;;;3.14;91.67;100219.94;5110453;28;20209;-70
2022/12/27 07:46:19;;;;;;;40.25;25.13;;;;;;;3.36;91.06;100202.34;5111860;28;20126;-75
2022/12/27 07:48:46;;;;;;;43.10;27.13;;;;;;;3.57;90.22;100203.28;5111608;28;20028;-72
2022/12/27 07:51:12;;;;;;;52.67;32.35;;;;;;;3.74;88.90;100192.00;5109285;28;20444;-71
2022/12/27 07:53:37;;;;;;;54.70;34.17;;;;;;;3.97;89.87;100206.44;5107375;28;20035;-74
2022/12/27 07:56:08;;;;;;;58.22;32.60;;;;;;;4.11;88.56;100198.47;5113690;28;20532;-74
2022/12/27 07:58:44;;;;;;;49.03;28.92;;;;;;;4.44;87.64;100207.38;5114308;28;20019;-74
2022/12/27 08:01:11;;;;;;;42.42;27.52;;;;;;;4.48;87.86;100200.16;5114298;28;20032;-72
2022/12/27 08:03:37;;;;;;;53.88;29.25;;;;;;;4.64;88.85;100202.94;5113076;28;20511;-71
2022/12/27 08:06:04;;;;;;;45.30;27.77;;;;;;;4.86;86.33;100208.19;5114271;28;20027;-71
2022/12/27 08:08:39;;;;;;;52.65;30.63;;;;;;;5.05;85.00;100197.34;5105738;28;20544;-71
2022/12/27 08:11:05;;;;;;;45.72;27.98;;;;;;;4.87;86.88;100201.53;5109866;28;20563;-71
2022/12/27 08:13:30;;;;;;;40.85;25.50;;;;;;;5.14;86.09;100197.63;5112811;28;20027;-72
2022/12/27 08:15:56;;;;;;;34.72;22.15;;;;;;;5.36;85.55;100195.59;5112608;28;20031;-71
2022/12/27 08:18:21;;;;;;;40.13;24.45;;;;;;;5.40;85.56;100194.75;5114035;28;20102;-72
2022/12/27 08:20:47;;;;;;;40.30;25.40;;;;;;;5.62;84.46;100193.56;5113816;28;20034;-70
2022/12/27 08:23:12;;;;;;;36.00;22.35;;;;;;;5.73;82.86;100184.09;5112478;28;20031;-68
2022/12/27 08:25:38;;;;;;;33.80;21.13;;;;;;;6.00;81.76;100190.34;5113866;28;20023;-69
2022/12/27 08:28:10;;;;;;;60.83;22.02;;;;;;;6.32;79.67;100194.59;5112380;28;20429;-70
2022/12/27 08:30:35;;;;;;;33.15;18.27;;;;;;;6.34;79.42;100183.22;5113712;28;20019;-71
2022/12/27 08:33:03;;;;;;;28.40;18.85;;;;;;;6.46;78.63;100201.19;5113548;28;20031;-71
2022/12/27 08:35:29;;;;;;;33.05;19.60;;;;;;;6.73;77.11;100179.56;5113532;28;20102;-70
2022/12/27 08:37:55;;;;;;;32.63;20.90;;;;;;;6.90;76.40;100195.00;5107094;28;20055;-71
2022/12/27 08:40:21;;;;;;;38.90;23.90;;;;;;;7.18;76.27;100181.34;5097226;28;20024;-71
2022/12/27 08:42:47;;;;;;;33.92;23.05;;;;;;;7.35;74.12;100178.09;5095750;28;20024;-70
2022/12/27 08:45:13;;;;;;;42.28;23.77;;;;;;;7.45;73.81;100181.59;5111617;28;20031;-73
2022/12/27 08:47:39;;;;;;;32.67;19.65;;;;;;;7.79;73.26;100163.09;5111825;28;20038;-73
2022/12/27 08:50:06;;;;;;;41.17;21.95;;;;;;;8.14;71.82;100163.69;5113337;28;20406;-72
2022/12/27 08:52:32;;;;;;;38.95;25.67;;;;;;;8.39;70.52;100158.03;5111943;28;20031;-73
2022/12/27 08:54:58;;;;;;;45.25;23.88;;;;;;;8.61;68.95;100164.94;5111791;28;20043;-73
2022/12/27 08:57:23;;;;;;;31.95;17.58;;;;;;;8.75;69.29;100145.44;5113174;28;20030;-73
2022/12/27 08:59:49;;;;;;;34.60;21.73;;;;;;;8.95;67.39;100147.06;5113285;28;20019;-75
2022/12/27 09:02:14;;;;;;;34.83;20.73;;;;;;;8.95;67.94;100147.06;5112894;28;20027;-75
2022/12/27 09:04:40;;;;;;;35.42;20.70;;;;;;;8.74;68.15;100157.75;5112974;28;20122;-75
2022/12/27 09:07:05;;;;;;;32.67;19.33;;;;;;;8.78;69.84;100148.47;5108160;28;20109;-73
2022/12/27 09:09:31;;;;;;;33.65;16.98;;;;;;;8.93;69.15;100138.16;5103478;28;20028;-72
2022/12/27 09:11:56;;;;;;;25.90;15.60;;;;;;;8.99;67.06;100140.56;5100687;28;20023;-72
2022/12/27 09:14:22;;;;;;;31.98;17.98;;;;;;;9.29;68.24;100131.91;5107903;28;20031;-73
2022/12/27 09:16:47;;;;;;;57.35;21.65;;;;;;;9.60;67.40;100125.66;5106563;28;20430;-73
2022/12/27 09:19:13;;;;;;;34.55;17.42;;;;;;;9.86;66.53;100125.09;5094289;28;20024;-72
2022/12/27 09:21:40;;;;;;;32.17;17.25;;;;;;;10.11;64.70;100114.44;5100994;28;20036;-72
2022/12/27 09:24:07;;;;;;;26.75;14.60;;;;;;;10.37;64.10;100111.03;5104521;28;20027;-70
2022/12/27 09:26:33;;;;;;;30.83;13.80;;;;;;;10.56;63.49;100108.09;5108054;28;20032;-72
2022/12/27 09:28:59;;;;;;;34.28;16.77;;;;;;;10.74;62.35;100103.41;5108533;28;20064;-73
2022/12/27 09:31:25;;;;;;;27.27;16.10;;;;;;;10.98;61.64;100107.81;5105846;27;20126;-72
2022/12/27 09:33:51;;;;;;;31.25;17.50;;;;;;;11.14;61.79;100088.59;5107983;28;20106;-70
2022/12/27 09:36:20;;;;;;;26.02;16.33;;;;;;;11.24;60.99;100098.69;5108331;28;20514;-73
2022/12/27 09:38:46;;;;;;;43.85;19.10;;;;;;;11.42;61.58;100096.78;5109931;28;20019;-72
2022/12/27 09:41:36;;;;;;;49.67;18.15;;;;;;;11.51;60.44;100096.78;5109137;28;20187;-78
2022/12/27 09:44:29;;;;;;;28.67;15.35;;;;;;;11.65;59.51;100083.47;5110051;28;20024;-75
2022/12/27 09:47:09;;;;;;;29.30;15.40;;;;;;;11.69;58.79;100080.84;5116762;27;20040;-70
2022/12/27 09:49:46;;;;;;;48.15;31.30;;;;;;;11.99;57.62;100075.41;5103879;28;20173;-70
2022/12/27 09:52:27;;;;;;;24.20;12.48;;;;;;;12.16;56.31;100066.19;5107763;28;20591;-70
2022/12/27 09:55:04;;;;;;;25.70;13.18;;;;;;;12.33;56.05;100065.34;5107574;28;20048;-70
2022/12/27 09:57:37;;;;;;;30.30;13.07;;;;;;;12.35;55.23;100068.63;5105902;28;20036;-71
2022/12/27 10:00:06;;;;;;;26.88;11.43;;;;;;;12.57;55.25;100061.16;5097786;28;20031;-69
2022/12/27 10:02:33;;;;;;;23.63;12.93;;;;;;;12.75;54.49;100061.13;5105546;28;20031;-68
2022/12/27 10:04:59;;;;;;;19.30;11.00;;;;;;;12.80;53.62;100054.50;5107550;28;20042;-70
2022/12/27 10:07:34;;;;;;;27.15;11.75;;;;;;;12.99;53.75;100057.72;5107685;28;20549;-69
2022/12/27 10:10:30;;;;;;;18.20;9.18;;;;;;;13.15;52.25;100057.13;5108531;28;20032;-70
2022/12/27 10:13:25;;;;;;;30.17;7.70;;;;;;;13.17;51.41;100049.22;5108649;28;20535;-71
2022/12/27 10:16:11;;;;;;;20.20;8.00;;;;;;;13.39;51.56;100044.44;5105209;28;20038;-72
2022/12/27 10:18:55;;;;;;;19.00;8.45;;;;;;;13.42;51.22;100041.78;5104440;28;20028;-72
2022/12/27 10:21:26;;;;;;;19.42;9.23;;;;;;;13.60;51.05;100030.47;5095450;28;20039;-72
2022/12/27 10:24:22;;;;;;;23.10;9.23;;;;;;;13.83;50.91;100030.94;5087674;28;20036;-75
2022/12/27 10:26:49;;;;;;;15.98;8.70;;;;;;;13.94;50.64;100025.75;5105454;28;20046;-75
2022/12/27 10:29:21;;;;;;;15.93;8.07;;;;;;;14.03;49.41;100015.22;5103758;28;20425;-75
2022/12/27 10:31:47;;;;;;;12.35;7.50;;;;;;;14.16;49.74;100015.25;5104097;28;20035;-75
2022/12/27 10:34:16;;;;;;;13.20;6.93;;;;;;;14.33;48.06;100014.25;5102383;28;20521;-71
2022/12/27 10:36:43;;;;;;;15.65;8.18;;;;;;;14.37;49.45;100022.84;5092123;28;20020;-72
2022/12/27 10:39:25;;;;;;;14.98;6.25;;;;;;;14.42;47.46;100014.16;5098514;28;20024;-71
2022/12/27 10:41:59;;;;;;;15.57;7.45;;;;;;;14.49;48.96;100014.41;5094636;28;20024;-70
2022/12/27 10:44:24;;;;;;;12.63;6.82;;;;;;;14.57;48.66;99998.59;5099342;28;20028;-72
2022/12/27 10:46:52;;;;;;;17.65;7.20;;;;;;;14.80;47.34;100010.28;5102128;27;20028;-73
2022/12/27 10:49:29;;;;;;;20.40;6.75;;;;;;;14.77;47.79;100004.53;5103776;28;20064;-75
2022/12/27 10:52:07;;;;;;;28.08;7.72;;;;;;;14.81;47.59;99991.38;5097493;28;20084;-74
2022/12/27 10:54:32;;;;;;;70.20;9.30;;;;;;;14.80;47.87;99987.75;5108061;28;20054;-72
2022/12/27 10:57:36;;;;;;;10.80;5.95;;;;;;;14.97;46.81;99992.34;5100820;28;20016;-73
2022/12/27 11:00:15;;;;;;;21.13;5.43;;;;;;;15.16;46.20;99986.09;5039345;28;20129;-73
2022/12/27 11:02:57;;;;;;;12.88;4.75;;;;;;;15.13;46.27;99983.16;5046413;28;20051;-73
2022/12/27 11:05:28;;;;;;;8.80;5.13;;;;;;;15.07;46.04;99982.59;5078997;28;20096;-71
2022/12/27 11:07:54;;;;;;;8.93;3.80;;;;;;;15.19;45.08;99986.56;5109619;28;20035;-71
2022/12/27 11:10:22;;;;;;;9.48;5.80;;;;;;;15.20;45.22;99971.31;5126598;27;20062;-71
2022/12/27 11:12:54;;;;;;;7.68;5.40;;;;;;;15.25;45.86;99980.34;5105737;28;20110;-73
2022/12/27 11:15:20;;;;;;;4.45;3.47;;;;;;;15.39;44.89;99965.88;5100990;28;20028;-72
2022/12/27 11:17:51;;;;;;;7.25;4.30;;;;;;;15.40;44.88;99966.69;5101592;28;20389;-70
2022/12/27 11:20:23;;;;;;;4.93;3.88;;;;;;;15.43;44.72;99958.34;5101155;28;20028;-72
2022/12/27 11:22:57;;;;;;;10.38;4.68;;;;;;;15.61;45.19;99954.41;5102768;28;21643;-72
2022/12/27 11:25:25;;;;;;;10.27;7.13;;;;;;;15.67;44.40;99952.97;5097889;28;20027;-72
2022/12/27 11:27:56;;;;;;;11.85;6.10;;;;;;;15.71;44.30;99965.19;5119105;27;20023;-72
2022/12/27 11:30:49;;;;;;;6.97;4.78;;;;;;;15.65;44.50;99952.50;5103171;28;20038;-70
2022/12/27 11:34:01;;;;;;;9.82;6.03;;;;;;;15.78;44.65;99958.94;5106188;28;20517;-71
2022/12/27 11:36:32;;;;;;;16.83;7.20;;;;;;;15.94;44.46;99953.38;5054479;28;20032;-71
2022/12/27 11:38:59;;;;;;;8.60;3.83;;;;;;;15.90;43.28;99944.81;5110884;28;20030;-71
2022/12/27 11:41:27;;;;;;;7.22;4.38;;;;;;;15.97;43.72;99956.28;5107750;28;20081;-71
2022/12/27 11:44:01;;;;;;;16.25;9.85;;;;;;;16.08;43.87;99942.50;5103981;28;20031;-70
2022/12/27 11:46:36;;;;;;;17.42;6.80;;;;;;;16.02;44.23;99945.94;5108082;28;20015;-70
2022/12/27 11:49:08;;;;;;;14.07;7.35;;;;;;;16.12;44.45;99954.69;5106296;28;20486;-70
2022/12/27 11:51:39;;;;;;;12.82;5.22;;;;;;;16.25;43.85;99948.97;5107703;28;20501;-71
2022/12/27 11:54:30;;;;;;;10.45;5.32;;;;;;;16.23;43.91;99945.69;5112678;28;20027;-70
2022/12/27 11:57:33;;;;;;;13.82;6.35;;;;;;;16.25;43.80;99943.31;5072881;28;20563;-70
2022/12/27 12:00:17;;;;;;;11.43;6.38;;;;;;;16.32;44.06;99951.16;5105936;28;20056;-70
2022/12/27 12:03:13;;;;;;;6.18;4.05;;;;;;;16.46;43.84;99945.88;5103141;28;20027;-70
2022/12/27 12:06:09;;;;;;;11.48;5.43;;;;;;;16.37;43.74;99948.88;5108500;28;20164;-70
2022/12/27 12:09:09;;;;;;;9.93;5.30;;;;;;;16.44;43.27;99939.78;5107831;28;20506;-70
2022/12/27 12:12:01;;;;;;;8.40;3.78;;;;;;;16.45;43.61;99935.78;5109682;28;20019;-71
2022/12/27 12:15:05;;;;;;;9.20;4.80;;;;;;;16.51;44.12;99933.50;5106636;28;20060;-73
2022/12/27 12:18:03;;;;;;;10.93;5.82;;;;;;;16.44;43.55;99933.34;5073882;28;20038;-70
2022/12/27 12:21:23;;;;;;;11.90;5.47;;;;;;;16.42;43.80;99931.69;5093424;28;20395;-71
2022/12/27 12:24:07;;;;;;;;;;;;;;;16.53;43.93;99936.78;5011938;28;20033;-69
2022/12/27 12:26:55;;;;;;;7.40;4.47;;;;;;;16.57;43.16;99934.88;5026605;28;19968;-69
2022/12/27 12:29:56;;;;;;;6.55;3.78;;;;;;;16.47;43.17;99932.59;5066276;28;20039;-70
2022/12/27 12:32:55;;;;;;;9.57;3.92;;;;;;;16.63;43.48;99926.97;5103795;28;20107;-69
2022/12/27 12:35:36;;;;;;;6.15;3.63;;;;;;;16.59;42.76;99935.31;5111216;28;20016;-70
2022/12/27 12:38:06;;;;;;;10.27;4.43;;;;;;;16.60;42.90;99941.81;5126715;27;20398;-70
2022/12/27 12:40:39;;;;;;;;;;;;;;;16.73;42.54;99949.00;5117210;27;20023;-70
2022/12/27 12:43:40;;;;;;;14.77;5.90;;;;;;;16.73;42.68;99949.00;5110360;28;20408;-70
2022/12/27 12:46:18;;;;;;;7.38;4.28;;;;;;;16.60;43.20;99941.81;5091607;28;20034;-70
2022/12/27 12:48:55;;;;;;;11.73;4.63;;;;;;;16.62;43.43;99954.34;5109485;28;20058;-72
2022/12/27 12:51:42;;;;;;;12.30;4.72;;;;;;;16.55;44.56;99960.66;5106671;28;20085;-71
2022/12/27 12:54:39;;;;;;;12.75;6.65;;;;;;;16.71;44.30;99959.81;5101634;28;20509;-72
2022/12/27 12:57:31;;;;;;;10.25;6.28;;;;;;;16.64;44.46;99960.47;5104048;28;20027;-71
2022/12/27 13:00:18;;;;;;;13.32;7.45;;;;;;;16.72;43.99;99969.13;5126125;27;20085;-70
2022/12/27 13:03:30;;;;;;;13.32;5.32;;;;;;;16.58;44.43;99966.75;5109449;28;20024;-72
2022/12/27 13:06:11;;;;;;;13.02;5.63;;;;;;;16.70;45.13;99964.66;5073260;28;20053;-70
2022/12/27 13:09:03;;;;;;;5.63;3.70;;;;;;;16.73;43.63;99957.47;5104137;28;20042;-72
2022/12/27 13:11:52;;;;;;;12.18;4.15;;;;;;;16.81;44.24;99950.00;5104100;28;20019;-70
2022/12/27 13:14:29;;;;;;;13.85;6.72;;;;;;;16.88;44.48;99952.16;5112069;28;20026;-70
2022/12/27 13:17:19;;;;;;;11.38;5.22;;;;;;;16.86;44.90;99948.91;5103141;28;20035;-71
2022/12/27 13:19:53;;;;;;;9.13;5.53;;;;;;;16.83;44.41;99958.91;5119401;27;20088;-72